Tiempo atmosférico en la estación meteorológica de Luzaide/Valcarlos, Navarra (334 m.)



Fecha
DESCASC
Temp. máxima en grados centígrados (hora)
DESCASC
Temp. mínima en grados centígrados (hora)
DESCASC
Temp. media en grados centígrados
DESCASC
Racha de viento máxima en m/sg (hora)
DESCASC
Velocidad máxima media en intervalos de 10 minutos(hora)
DESCASC
Precipitaciones diarias en mm
DESCASC
Precipitaciones de 00:00 a 06:00 en mm
DESCASC
Precipitaciones de 06:00 a 12:00 en mm
DESCASC
Precipitaciones de 12:00 a 18:00 en mm
DESCASC
Precipitaciones de 18:00 a 24:00 en mm
DESCASC
16-04-2019 17.3 (16:40) 9.3 (23:50) 13.3 6.94 (15:30) 3.89 (14:30) 3.4 3.4 0 0 0
15-04-2019 23.8 (12:50) 8.8 (02:00) 16.3 12.78 (15:20) 4.72 (15:00) 28.2 0 0 0 28.2
14-04-2019 18.9 (15:00) 6.6 (00:00) 12.7 7.22 (15:10) 5.28 (15:20) 0 0 0 0 0
13-04-2019 17.9 (16:30) 2.1 (00:00) 10 6.67 (16:50) 4.17 (11:50) 0 0 0 0 0
12-04-2019 14.2 (14:50) 4.8 (00:00) 9.5 9.44 (13:50) 4.72 (16:00) 0 0 0 0 0
11-04-2019 11.3 (18:00) 6.6 (00:00) 9 5.83 (20:00) 3.06 (20:00) 5.8 0.2 4.4 1.2 0
10-04-2019 13.1 (16:30) 7.2 (00:00) 10.2 9.44 (16:50) 5.83 (16:50) 1.6 0 0.8 0.8 0
09-04-2019 18.2 (14:50) 5.2 (00:00) 11.7 8.89 (13:10) 4.17 (13:40) 2 0 0 1.6 0.4
08-04-2019 13.2 (13:50) 5.4 (00:00) 9.3 11.39 (05:00) 5.28 (04:10) 0.8 0 0.2 0.6 0
07-04-2019 11.8 (18:00) 5.5 (00:00) 8.7 7.22 (13:20) 3.61 (18:30) 2.6 2.6 0 0 0
06-04-2019 13.1 (16:10) 4.7 (00:00) 8.9 10.83 (13:20) 5.28 (11:40) 4.6 0.4 2 1 1.2
05-04-2019 14.6 (12:40) 6.2 (00:00) 10.4 12.78 (10:50) 5.83 (12:10) 2.4 0 0 0 2.4
04-04-2019 13 (17:20) 3 (00:00) 8 9.17 (16:00) 4.17 (15:50) 1.4 1.4 0 0 0
03-04-2019 11 (14:30) 3.4 (00:00) 7.2 10.28 (15:50) 3.33 (19:50) 10.8 3.8 2.8 2.8 1.4
02-04-2019 17.2 (14:30) 9.3 (00:00) 13.3 8.33 (15:20) 4.17 (16:00) 0.4 0 0 0 0.4
01-04-2019 14.5 (16:00) 9.5 (00:00) 12 8.61 (22:00) 3.89 (00:10) 2.8 1 1 0 0.8
31-03-2019 19 (15:00) 7.6 (00:00) 13.3 7.22 (23:59) 3.89 (23:59) 0 0 0 0 0
30-03-2019 21.3 (16:00) 10.4 (00:00) 15.8 12.22 (02:30) 6.39 (01:00) 0 0 0 0 0
29-03-2019 21.3 (13:50) 3.4 (00:00) 12.3 12.78 (16:00) 5.28 (22:30) 0 0 0 0 0
28-03-2019 15.2 (13:40) 2.7 (00:00) 8.9 7.5 (16:10) 3.89 (14:30) 0 0 0 0 0
27-03-2019 14.1 (15:10) 1.1 (00:00) 7.6 9.44 (17:10) 5.28 (17:10) 0 0 0 0 0
26-03-2019 13.1 (16:00) 1.6 (00:00) 7.4 12.22 (17:30) 7.22 (16:20) 0 0 0 0 0
25-03-2019 12.5 (15:20) 4.8 (00:00) 8.7 10 (15:30) 5.83 (15:30) 0 0 0 0 0
24-03-2019 19.3 (14:20) 6.6 (00:00) 12.9 8.89 (13:00) 4.72 (16:30) 0 0 0 0 0
23-03-2019 20.2 (14:40) 6.1 (00:00) 13.2 6.94 (12:30) 5 (12:30) 0 0 0 0 0
22-03-2019 19.2 (11:50) 2.7 (00:00) 11 7.22 (14:00) 5 (12:50) 0 0 0 0 0
21-03-2019 14 (14:10) 1.2 (00:00) 7.6 6.39 (16:40) 3.89 (14:50) 0 0 0 0 0
20-03-2019 10.9 (16:00) 2.9 (00:00) 6.9 9.72 (12:10) 6.11 (12:10) 0 0 0 0 0
19-03-2019 8.3 (16:30) 5 (00:00) 6.7 8.61 (11:20) 4.72 (11:20) 12.4 9.4 2.6 0 0.4

Gráficas

Temp. máximas Temp. mínimas Temp. medias Precipitaciones Rachas de viento máximas Velocidades máximas media en intervalos de 10 minutos

Datos horarios

Fecha y hora oficial Temperatura (ºC) Velocidad del viento (km/h) Dirección del viento Racha (km/h) Dirección de racha Precipitación (mm) Presión (hPa) Tendencia (hPa) Humedad (%)
2019-04-17 23:00:00 14.9 3 Norte 9 Sur 0 -- -- 82
2019-04-17 22:00:00 16 2 Noroeste 8 Noroeste 0 -- -- 76
2019-04-17 21:00:00 18 3 Sur 15 Noroeste 0 -- -- 67
2019-04-17 20:00:00 20.2 5 Norte 15 Sudoeste 0 -- -- 55
2019-04-17 19:00:00 23.3 6 Sudoeste 15 Sudoeste 0 -- -- 37
2019-04-17 18:00:00 24.4 10 Sudoeste 41 Sudoeste 0 -- -- 35
2019-04-17 17:00:00 24.3 14 Sudoeste 35 Sudoeste 0 -- -- 34
2019-04-17 16:00:00 23.5 6 Sudoeste 31 Sudoeste 0 -- -- 38
2019-04-17 15:00:00 23.9 5 Noroeste 16 Noroeste 0 -- -- 39
2019-04-17 14:00:00 21.4 9 Sudeste 32 Sur 0 -- -- 42
2019-04-17 13:00:00 20.6 6 Noroeste 40 Sudeste 0 -- -- 46
2019-04-17 12:00:00 19.8 16 Sur 50 Sudoeste 0 -- -- 41
2019-04-17 11:00:00 18.7 8 Sudoeste 37 Sudoeste 0 -- -- 46
2019-04-17 10:00:00 18.1 12 Sudoeste 37 Oeste 0 -- -- 46
2019-04-17 09:00:00 17.7 7 Oeste 25 Oeste 0 -- -- 49
2019-04-17 08:00:00 15.9 6 Noroeste 32 Oeste 0 -- -- 53
2019-04-17 07:00:00 15.7 8 Oeste 25 Sudoeste 0 -- -- 53
2019-04-17 06:00:00 16.2 8 Oeste 41 Sur 0 -- -- 53
2019-04-17 05:00:00 15.4 11 Sudoeste 36 Sur 0 -- -- 56
2019-04-17 04:00:00 11.5 5 Sudoeste 17 Sudeste 0 -- -- 79
2019-04-17 03:00:00 8.7 5 Norte 13 Norte 0 -- -- 95
2019-04-17 02:00:00 8.5 3 Sudeste 9 Sur 0 -- -- 95
2019-04-17 01:00:00 8.7 4 Sudoeste 8 Sudoeste 0 -- -- 94
2019-04-17 00:00:00 9.4 2 Sudoeste 8 Oeste 0 -- -- 92
2019-04-16 23:00:00 10.3 0 Calma 6 Sur 0 -- -- 88
2019-04-16 22:00:00 11.8 3 Sudoeste 6 Sudoeste 0 -- -- 83
2019-04-16 21:00:00 13.6 3 Sur 7 Sur 0 -- -- 78
2019-04-16 20:00:00 15.5 3 Noroeste 17 Norte 0 -- -- 67
2019-04-16 19:00:00 16.2 10 Norte 20 Norte 0 -- -- 65
2019-04-16 18:00:00 16.7 12 Norte 22 Norte 0 -- -- 63
2019-04-16 17:00:00 17.1 12 Norte 23 Norte 0 -- -- 62
2019-04-16 16:00:00 16.9 13 Norte 25 Norte 0 -- -- 64
2019-04-16 15:00:00 16.7 11 Norte 24 Norte 0 -- -- 62
2019-04-16 14:00:00 16.2 12 Norte 21 Norte 0 -- -- 66
2019-04-16 13:00:00 15.7 10 Norte 19 Nordeste 0 -- -- 64
2019-04-16 12:00:00 13.5 10 Norte 20 Norte 0 -- -- 73
2019-04-16 11:00:00 12.1 12 Norte 19 Norte 0 -- -- 84
2019-04-16 10:00:00 11.2 0 Calma 9 Norte 0 -- -- 94
2019-04-16 09:00:00 10.2 5 Norte 15 Noroeste 0 -- -- 98
2019-04-16 08:00:00 9.6 0 Calma 4 Norte 0 -- -- 98
2019-04-16 07:00:00 9.7 3 Noroeste 7 Norte 0 -- -- 98
2019-04-16 06:00:00 9.8 0 Calma 7 Sur 0 -- -- 97
2019-04-16 05:00:00 9.8 3 Sur 5 Sur 0 -- -- 97
2019-04-16 04:00:00 9.9 0 Calma 5 Sur 0 -- -- 97
2019-04-16 03:00:00 10 3 Sudoeste 6 Sudoeste 0 -- -- 97
2019-04-16 02:00:00 10.1 0 Calma 6 Oeste 1 -- -- 96
2019-04-16 01:00:00 10.2 3 Sur 6 Sur 2.4 -- -- 96
2019-04-16 00:00:00 10.5 3 Sur 10 Este 5.8 -- -- 95
2019-04-15 23:00:00 10.9 3 Sur 21 Sudeste 2.4 -- -- 92
2019-04-15 22:00:00 11.6 7 Sudeste 28 Sur 3.8 -- -- 87
2019-04-15 21:00:00 13.3 9 Sudoeste 35 Sudoeste 8 -- -- 84
2019-04-15 20:00:00 14.7 9 Sur 43 Sudoeste 6.6 -- -- 81
2019-04-15 19:00:00 19.8 15 Sur 46 Sudoeste 1.6 -- -- 65
2019-04-15 18:00:00 23.4 4 Oeste 28 Sudoeste 0 -- -- 45
2019-04-15 17:00:00 22.9 10 Sudoeste 27 Sudoeste 0 -- -- 45
2019-04-15 16:00:00 23.2 12 Sudoeste 46 Sudoeste 0 -- -- 44
2019-04-15 15:00:00 22.6 17 Sur 36 Sudeste 0 -- -- 46
2019-04-15 14:00:00 23 7 Sur 35 Sur 0 -- -- 45
2019-04-15 13:00:00 23.7 5 Nordeste 24 Sur 0 -- -- 47
2019-04-15 12:00:00 23.1 6 Sudoeste 24 Sudoeste 0 -- -- 45
2019-04-15 11:00:00 22 6 Noroeste 31 Sudoeste 0 -- -- 50
2019-04-15 10:00:00 16.8 3 Sur 16 Sudeste 0 -- -- 78
2019-04-15 09:00:00 11.4 5 Sur 10 Sur 0 -- -- 94
2019-04-15 08:00:00 9.7 0 Calma 4 Sur 0 -- -- 92
2019-04-15 07:00:00 9.6 2 Sur 6 Sur 0 -- -- 92
2019-04-15 06:00:00 9.4 0 Calma 5 Sur 0 -- -- 94
2019-04-15 05:00:00 9.7 4 Sur 6 Sudoeste 0 -- -- 96
2019-04-15 04:00:00 9.5 2 Sur 5 Sudoeste 0 -- -- 95
2019-04-15 03:00:00 9 0 Calma 6 Sur 0 -- -- 95
2019-04-15 02:00:00 8.8 2 Sur 5 Sudoeste 0 -- -- 94
2019-04-15 01:00:00 9.4 0 Calma 6 Sudeste 0 -- -- 92
2019-04-15 00:00:00 10 2 Sur 5 Sudoeste 0 -- -- 90
2019-04-14 23:00:00 11.1 3 Sur 5 Sudoeste 0 -- -- 86
2019-04-14 22:00:00 12.1 3 Sur 6 Sur 0 -- -- 84
2019-04-14 21:00:00 13.9 3 Sur 10 Norte 0 -- -- 78
2019-04-14 20:00:00 16 0 Calma 9 Sur 0 -- -- 70
2019-04-14 19:00:00 16.4 6 Sudoeste 13 Nordeste 0 -- -- 68
2019-04-14 18:00:00 16.3 6 Norte 22 Norte 0 -- -- 68
2019-04-14 17:00:00 16.5 12 Norte 24 Nordeste 0 -- -- 61
2019-04-14 16:00:00 16.9 12 Norte 26 Norte 0 -- -- 55
2019-04-14 15:00:00 18.9 10 Norte 22 Norte 0 -- -- 49
2019-04-14 14:00:00 16.8 12 Norte 19 Norte 0 -- -- 52
2019-04-14 13:00:00 15.6 12 Norte 17 Nordeste 0 -- -- 53
2019-04-14 12:00:00 15.7 6 Norte 10 Norte 0 -- -- 54
2019-04-14 11:00:00 13.7 2 Este 4 Nordeste 0 -- -- 57
2019-04-14 10:00:00 10.6 0 Calma 6 Norte 0 -- -- 79
2019-04-14 09:00:00 9.3 0 Calma 5 Sur 0 -- -- 71
2019-04-14 08:00:00 8.6 0 Calma 3 Sur 0 -- -- 74
2019-04-14 07:00:00 8.4 0 Calma 3 Sudeste 0 -- -- 74
2019-04-14 06:00:00 8.4 0 Calma 4 Sur 0 -- -- 70
2019-04-14 05:00:00 7.6 0 Calma 4 Oeste 0 -- -- 70
2019-04-14 04:00:00 6.8 2 Sur 4 Sudoeste 0 -- -- 72
2019-04-14 03:00:00 7 2 Sur 5 Sur 0 -- -- 71
2019-04-14 02:00:00 6.8 2 Sudoeste 5 Sur 0 -- -- 73
2019-04-14 01:00:00 7.2 3 Sur 5 Sur 0 -- -- 74
2019-04-14 00:00:00 8.3 0 Calma 6 Sur 0 -- -- 70
2019-04-13 23:00:00 9.1 3 Sur 8 Sudoeste 0 -- -- 69
2019-04-13 22:00:00 10 3 Sur 7 Sur 0 -- -- 67
2019-04-13 21:00:00 11.9 4 Sur 10 Sur 0 -- -- 61
2019-04-13 20:00:00 14.8 2 Sur 13 Norte 0 -- -- 49
2019-04-13 19:00:00 16.5 11 Norte 18 Norte 0 -- -- 41
2019-04-13 18:00:00 17.3 13 Norte 21 Noroeste 0 -- -- 41
2019-04-13 17:00:00 17.8 13 Norte 24 Norte 0 -- -- 40
2019-04-13 16:00:00 17.7 13 Norte 23 Norte 0 -- -- 40
2019-04-13 15:00:00 17.6 10 Norte 21 Norte 0 -- -- 41
2019-04-13 14:00:00 16.1 12 Norte 24 Norte 0 -- -- 45
2019-04-13 13:00:00 14.7 15 Norte 23 Norte 0 -- -- 50
2019-04-13 12:00:00 13.2 14 Norte 21 Norte 0 -- -- 59
2019-04-13 11:00:00 11.7 6 Norte 9 Norte 0 -- -- 60
2019-04-13 10:00:00 9 3 Sudeste 6 Sudeste 0 -- -- 74
2019-04-13 09:00:00 3.1 3 Sudeste 9 Oeste 0 -- -- 93
2019-04-13 08:00:00 2.5 3 Sur 6 Sur 0 -- -- 93
2019-04-13 07:00:00 2.2 2 Sur 8 Sudoeste 0 -- -- 94
2019-04-13 06:00:00 2.4 0 Calma 7 Sudoeste 0 -- -- 93
2019-04-13 05:00:00 2.7 2 Sur 7 Sudoeste 0 -- -- 92
2019-04-13 04:00:00 3.3 3 Sur 6 Sudoeste 0 -- -- 92
2019-04-13 03:00:00 3.6 3 Sur 8 Sudoeste 0 -- -- 91
2019-04-13 02:00:00 3.9 4 Sur 8 Sur 0 -- -- 90
2019-04-13 01:00:00 4.1 3 Sur 11 Sudoeste 0 -- -- 89
2019-04-13 00:00:00 4.8 2 Sur 6 Sur 0 -- -- 87
2019-04-12 23:00:00 5.6 3 Sur 8 Sudoeste 0 -- -- 84
2019-04-12 22:00:00 7 0 Calma 3 Sur 0 -- -- 79
2019-04-12 21:00:00 9.1 0 Calma 9 Noroeste 0 -- -- 68
2019-04-12 20:00:00 11.1 8 Norte 19 Norte 0 -- -- 60
2019-04-12 19:00:00 12.1 12 Norte 22 Noroeste 0 -- -- 57
2019-04-12 18:00:00 12.9 14 Norte 29 Norte 0 -- -- 56
2019-04-12 17:00:00 13.4 11 Nordeste 30 Norte 0 -- -- 58
2019-04-12 16:00:00 13.4 17 Norte 30 Norte 0 -- -- 59
2019-04-12 15:00:00 13.6 14 Norte 27 Norte 0 -- -- 60
2019-04-12 14:00:00 12.8 16 Norte 34 Norte 0 -- -- 59
2019-04-12 13:00:00 13.1 9 Norte 22 Nordeste 0 -- -- 64
2019-04-12 12:00:00 11.1 11 Norte 23 Norte 0 -- -- 76
2019-04-12 11:00:00 10.4 7 Norte 13 Nordeste 0 -- -- 78
2019-04-12 10:00:00 9 8 Norte 16 Norte 0 -- -- 81
2019-04-12 09:00:00 7.8 6 Norte 14 Noroeste 0 -- -- 96
2019-04-12 08:00:00 7.2 0 Calma 10 Noroeste 0 -- -- 95
2019-04-12 07:00:00 7.7 6 Norte 13 Noroeste 0 -- -- 93
2019-04-12 06:00:00 8.3 6 Norte 15 Noroeste 0 -- -- 92
2019-04-12 05:00:00 8.4 3 Norte 12 Noroeste 0 -- -- 91
2019-04-12 04:00:00 8.6 5 Norte 12 Noroeste 0 -- -- 91
2019-04-12 03:00:00 8.8 7 Norte 13 Noroeste 0 -- -- 90
2019-04-12 02:00:00 8.6 4 Norte 14 Noroeste 0 -- -- 92
2019-04-12 01:00:00 8.3 5 Norte 10 Norte 0 -- -- 92
2019-04-12 00:00:00 8 3 Norte 6 Noroeste 0 -- -- 92
2019-04-11 23:00:00 8 0 Calma 6 Sur 0 -- -- 90
2019-04-11 22:00:00 8.1 3 Sur 7 Nordeste 0 -- -- 86
2019-04-11 21:00:00 9.2 4 Norte 16 Noroeste 0 -- -- 72
2019-04-11 20:00:00 9.9 11 Norte 21 Noroeste 0 -- -- 78
2019-04-11 19:00:00 10.7 9 Norte 14 Norte 0 -- -- 76
2019-04-11 18:00:00 11.3 5 Este 13 Sudeste 0.2 -- -- 72
2019-04-11 17:00:00 10.6 2 Sudeste 12 Noroeste 0 -- -- 77
2019-04-11 16:00:00 9.7 8 Norte 15 Norte 0 -- -- 91
2019-04-11 15:00:00 9.9 2 Sur 9 Nordeste 0.2 -- -- 93
2019-04-11 14:00:00 9.5 4 Norte 18 Norte 0.6 -- -- 93
2019-04-11 13:00:00 9.9 3 Sudoeste 11 Norte 0.2 -- -- 90
2019-04-11 12:00:00 9.7 2 Noroeste 6 Sudoeste 0.2 -- -- 92
2019-04-11 11:00:00 8.4 2 Nordeste 5 Norte 0.8 -- -- 97
2019-04-11 10:00:00 8.1 0 Calma 5 Sudoeste 0.6 -- -- 98
2019-04-11 09:00:00 7.2 0 Calma 3 Nordeste 1.6 -- -- 98
2019-04-11 08:00:00 6.8 0 Calma 6 Sur 0.4 -- -- 97
2019-04-11 07:00:00 6.7 3 Sur 5 Sur 0.8 -- -- 96
2019-04-11 06:00:00 7 0 Calma 5 Sudoeste 0 -- -- 93
2019-04-11 05:00:00 7.6 3 Sur 6 Sudeste 0.2 -- -- 94
2019-04-11 04:00:00 8.1 3 Norte 15 Norte 0 -- -- 92
2019-04-11 03:00:00 8.3 4 Norte 9 Norte 0 -- -- 92
2019-04-11 02:00:00 8.7 6 Norte 14 Norte 0 -- -- 88
2019-04-11 01:00:00 9 8 Norte 13 Norte 0 -- -- 87
2019-04-11 00:00:00 8.2 3 Norte 10 Noroeste 0 -- -- 88
2019-04-10 23:00:00 8.5 5 Norte 9 Noroeste 0 -- -- 85
2019-04-10 22:00:00 9.3 0 Calma 11 Nordeste 0 -- -- 78
2019-04-10 21:00:00 10.2 8 Norte 15 Norte 0 -- -- 70
2019-04-10 20:00:00 11.1 10 Norte 22 Norte 0 -- -- 70
2019-04-10 19:00:00 11.8 10 Norte 32 Norte 0 -- -- 69
2019-04-10 18:00:00 12.1 12 Norte 31 Norte 0 -- -- 66
2019-04-10 17:00:00 12.1 13 Norte 34 Nordeste 0 -- -- 65
2019-04-10 16:00:00 12.2 6 Nordeste 14 Sur 0 -- -- 72
2019-04-10 15:00:00 10.2 8 Nordeste 21 Norte 0.8 -- -- 74
2019-04-10 14:00:00 11.5 5 Norte 21 Norte 0 -- -- 73
2019-04-10 13:00:00 11.1 7 Norte 14 Norte 0 -- -- 74
2019-04-10 12:00:00 9.4 8 Norte 14 Nordeste 0 -- -- 87
2019-04-10 11:00:00 8.7 8 Norte 12 Nordeste 0 -- -- 95
2019-04-10 10:00:00 8.1 2 Norte 5 Oeste 0 -- -- 97
2019-04-10 09:00:00 7.5 0 Calma 5 Nordeste 0.8 -- -- 96
2019-04-10 08:00:00 7.3 0 Calma 3 Sur 0 -- -- 95
2019-04-10 07:00:00 7.3 0 Calma 3 Sur 0 -- -- 94
2019-04-10 06:00:00 7.3 0 Calma 3 Noroeste 0 -- -- 94
2019-04-10 05:00:00 7.3 2 Noroeste 6 Sur 0 -- -- 93
2019-04-10 04:00:00 7.3 2 Sur 6 Norte 0 -- -- 93
2019-04-10 03:00:00 7.6 3 Norte 9 Sur 0 -- -- 91
2019-04-10 02:00:00 8.1 4 Sur 12 Sudeste 0 -- -- 89
2019-04-10 01:00:00 8 5 Sur 12 Sudeste 0 -- -- 90
2019-04-10 00:00:00 8.3 2 Sur 9 Sudoeste 0 -- -- 90
2019-04-09 23:00:00 8.9 7 Sur 13 Sudoeste 0 -- -- 88
2019-04-09 22:00:00 9 4 Sur 9 Sudoeste 0 -- -- 89
2019-04-09 21:00:00 9.9 3 Sudoeste 18 Sur 0.4 -- -- 84
2019-04-09 20:00:00 10.8 5 Sur 14 Sur 0 -- -- 81
2019-04-09 19:00:00 11.3 0 Calma 6 Sudoeste 0 -- -- 87
2019-04-09 18:00:00 11.1 6 Sur 10 Sudeste 0.2 -- -- 80
2019-04-09 17:00:00 11.4 6 Sur 21 Nordeste 1.4 -- -- 79
2019-04-09 16:00:00 15.4 13 Nordeste 30 Norte 0 -- -- 50
2019-04-09 15:00:00 17.9 10 Sudeste 24 Sur 0 -- -- 41
2019-04-09 14:00:00 16.9 15 Sur 32 Sudoeste 0 -- -- 44
2019-04-09 13:00:00 15.6 11 Sur 27 Sur 0 -- -- 50
2019-04-09 12:00:00 15.4 10 Sur 27 Sur 0 -- -- 51
2019-04-09 11:00:00 14.2 13 Sur 26 Sudeste 0 -- -- 51
2019-04-09 10:00:00 13.3 11 Sudeste 24 Sudeste 0 -- -- 59
2019-04-09 09:00:00 8.4 8 Sur 13 Sur 0 -- -- 73
2019-04-09 08:00:00 8.6 8 Sur 19 Sudeste 0 -- -- 73
2019-04-09 07:00:00 7.9 6 Sur 13 Sur 0 -- -- 82
2019-04-09 06:00:00 5.6 4 Sur 9 Sur 0 -- -- 96
2019-04-09 05:00:00 5.3 0 Calma 6 Oeste 0 -- -- 94
2019-04-09 04:00:00 5.2 0 Calma 4 Sur 0 -- -- 93
2019-04-09 03:00:00 5.4 3 Sur 6 Sudoeste 0 -- -- 93
2019-04-09 02:00:00 5.7 3 Sur 6 Sur 0 -- -- 92
2019-04-09 01:00:00 6.1 0 Calma 6 Sur 0 -- -- 91
2019-04-09 00:00:00 6.2 4 Sur 8 Sur 0 -- -- 91
2019-04-08 23:00:00 6.8 0 Calma 7 Sudoeste 0 -- -- 88
2019-04-08 22:00:00 8.7 4 Sur 8 Sudoeste 0 -- -- 85
2019-04-08 21:00:00 10 2 Sur 8 Sudoeste 0 -- -- 84
2019-04-08 20:00:00 10.5 3 Noroeste 14 Norte 0 -- -- 78
2019-04-08 19:00:00 11 4 Norte 11 Noroeste 0 -- -- 83
2019-04-08 18:00:00 10.6 0 Calma 19 Norte 0.2 -- -- 89
2019-04-08 17:00:00 11.6 9 Norte 13 Norte 0 -- -- 78
2019-04-08 16:00:00 10.9 5 Nordeste 17 Norte 0.4 -- -- 85
2019-04-08 15:00:00 12.1 8 Norte 14 Norte 0 -- -- 80
2019-04-08 14:00:00 12.8 5 Norte 10 Sur 0 -- -- 70
2019-04-08 13:00:00 12.3 6 Sur 21 Sur 0 -- -- 70
2019-04-08 12:00:00 12.2 8 Sudeste 20 Sudeste 0 -- -- 66
2019-04-08 11:00:00 11.9 6 Sudeste 17 Sudeste 0.2 -- -- 71
2019-04-08 10:00:00 11.3 5 Sudeste 21 Sudoeste 0 -- -- 68
2019-04-08 09:00:00 10.6 7 Sur 20 Sudoeste 0 -- -- 67
2019-04-08 08:00:00 10.2 9 Sur 27 Sur 0 -- -- 68
2019-04-08 07:00:00 9.9 4 Sur 31 Sudoeste 0 -- -- 68
2019-04-08 06:00:00 10 17 Sur 41 Sur 0 -- -- 68
2019-04-08 05:00:00 10.1 19 Sur 41 Sur 0 -- -- 67
2019-04-08 04:00:00 11.2 16 Sur 37 Sur 0 -- -- 56
2019-04-08 03:00:00 9.2 9 Sur 25 Sudoeste 0 -- -- 67
2019-04-08 02:00:00 5.6 3 Sur 8 Sur 0 -- -- 91
2019-04-08 01:00:00 5.5 0 Calma 6 Sur 0 -- -- 91
2019-04-08 00:00:00 5.5 0 Calma 8 Sur 0 -- -- 91
2019-04-07 23:00:00 6 3 Sur 8 Sur 0 -- -- 88
2019-04-07 22:00:00 7 4 Sudoeste 10 Sur 0 -- -- 84
2019-04-07 21:00:00 8.4 3 Sur 6 Sur 0 -- -- 79
2019-04-07 20:00:00 10.5 3 Nordeste 13 Norte 0 -- -- 70
2019-04-07 19:00:00 10.7 6 Norte 18 Norte 0 -- -- 69
2019-04-07 18:00:00 11.8 4 Norte 9 Norte 0 -- -- 62
2019-04-07 17:00:00 11.6 3 Nordeste 12 Sudoeste 0 -- -- 65
2019-04-07 16:00:00 10.7 4 Noroeste 14 Sur 0 -- -- 69
2019-04-07 15:00:00 10.1 4 Este 20 Sudoeste 0 -- -- 73
2019-04-07 14:00:00 9.5 5 Oeste 26 Oeste 0 -- -- 71
2019-04-07 13:00:00 9.9 3 Este 20 Noroeste 0 -- -- 72
2019-04-07 12:00:00 9.6 4 Sudeste 11 Este 0 -- -- 72
2019-04-07 11:00:00 8.4 3 Norte 15 Sudoeste 0 -- -- 76
2019-04-07 10:00:00 8.2 6 Sur 16 Sur 0 -- -- 75
2019-04-07 09:00:00 6.5 5 Sur 12 Sur 0 -- -- 93
2019-04-07 08:00:00 5.6 3 Sur 10 Oeste 0 -- -- 95
2019-04-07 07:00:00 5.6 3 Sur 8 Sudeste 0 -- -- 95
2019-04-07 06:00:00 5.6 0 Calma 12 Sur 0 -- -- 95
2019-04-07 05:00:00 5.6 6 Sur 12 Sudoeste 0.4 -- -- 94
2019-04-07 04:00:00 5.6 0 Calma 10 Sudoeste 0 -- -- 92
2019-04-07 03:00:00 5.9 8 Sur 17 Sur 0.4 -- -- 87
2019-04-07 02:00:00 5.6 4 Sudoeste 13 Oeste 1.2 -- -- 92
2019-04-07 01:00:00 5.9 5 Sur 18 Sur 0.6 -- -- 87
2019-04-07 00:00:00 6.6 6 Sur 33 Sur 0.8 -- -- 84
2019-04-06 23:00:00 7.6 5 Sur 18 Sudoeste 0 -- -- 83
2019-04-06 22:00:00 8 5 Sudeste 18 Sur 0.4 -- -- 82
2019-04-06 21:00:00 10.2 10 Sudoeste 22 Sudoeste 0 -- -- 63
2019-04-06 20:00:00 10.7 10 Sudoeste 23 Sudoeste 0 -- -- 62
2019-04-06 19:00:00 11.5 10 Sudoeste 27 Sur 0 -- -- 60
2019-04-06 18:00:00 10.6 10 Sur 24 Sur 0 -- -- 65
2019-04-06 17:00:00 7.7 12 Sur 33 Sur 0.6 -- -- 78
2019-04-06 16:00:00 12.8 14 Sur 30 Sur 0.4 -- -- 59
2019-04-06 15:00:00 12.4 16 Sur 31 Sur 0 -- -- 52
2019-04-06 14:00:00 12.9 17 Sur 39 Sudeste 0 -- -- 54
2019-04-06 13:00:00 11.7 13 Sur 33 Sur 0 -- -- 58
2019-04-06 12:00:00 10.2 17 Sur 36 Sur 0 -- -- 60
2019-04-06 11:00:00 9.8 9 Sur 23 Sur 0 -- -- 66
2019-04-06 10:00:00 7.3 8 Sur 21 Sur 0 -- -- 79
2019-04-06 09:00:00 5.3 0 Calma 4 Sur 0 -- -- 96
2019-04-06 08:00:00 4.8 0 Calma 9 Sudoeste 0.2 -- -- 94
2019-04-06 07:00:00 5.5 5 Sur 10 Noroeste 1.8 -- -- 90
2019-04-06 06:00:00 5.8 0 Calma 9 Norte 0 -- -- 95
2019-04-06 05:00:00 5.9 0 Calma 8 Norte 0 -- -- 93
2019-04-06 04:00:00 6 2 Sudoeste 9 Sudoeste 0 -- -- 91
2019-04-06 03:00:00 6 4 Sur 12 Sur 0 -- -- 91
2019-04-06 02:00:00 5.8 7 Sur 11 Sur 0.2 -- -- 91
2019-04-06 01:00:00 5.7 4 Sur 13 Sudoeste 0.2 -- -- 89
2019-04-06 00:00:00 6.2 8 Sur 17 Sur 1.6 -- -- 85
2019-04-05 23:00:00 8.2 5 Sudoeste 25 Norte 0.8 -- -- 81
2019-04-05 22:00:00 9.3 15 Norte 26 Norte 0 -- -- 71
2019-04-05 21:00:00 10.4 6 Sur 23 Sur 0 -- -- 62
2019-04-05 20:00:00 11.2 9 Sudeste 24 Este 0 -- -- 60
2019-04-05 19:00:00 12.2 10 Norte 18 Norte 0 -- -- 56
2019-04-05 18:00:00 12.3 4 Norte 26 Sudoeste 0 -- -- 59
2019-04-05 17:00:00 12.3 6 Este 14 Norte 0 -- -- 56
2019-04-05 16:00:00 12.2 9 Norte 25 Norte 0 -- -- 59
2019-04-05 15:00:00 12.5 7 Sudoeste 32 Sudoeste 0 -- -- 56
2019-04-05 14:00:00 13 10 Sur 34 Sudoeste 0 -- -- 56
2019-04-05 13:00:00 13.7 12 Sur 42 Sudoeste 0 -- -- 52
2019-04-05 12:00:00 12.8 19 Sur 39 Sudoeste 0 -- -- 54
2019-04-05 11:00:00 10 19 Sur 46 Sudoeste 0 -- -- 61
2019-04-05 10:00:00 9.5 16 Sur 41 Sur 0 -- -- 63
2019-04-05 09:00:00 9.1 6 Sudoeste 27 Sudoeste 0 -- -- 63
2019-04-05 08:00:00 9.7 8 Sudoeste 27 Sur 0 -- -- 58
2019-04-05 07:00:00 11.2 10 Sudoeste 30 Sudoeste 0 -- -- 44
2019-04-05 06:00:00 9.9 5 Oeste 20 Oeste 0 -- -- 44
2019-04-05 05:00:00 10.6 5 Oeste 22 Sudoeste 0 -- -- 40
2019-04-05 04:00:00 10.1 8 Sur 27 Sudeste 0 -- -- 40
2019-04-05 03:00:00 10.7 10 Sur 27 Sudoeste 0 -- -- 40
2019-04-05 02:00:00 11 4 Sudoeste 23 Sudoeste 0 -- -- 40
2019-04-05 01:00:00 11.2 5 Sudoeste 24 Sur 0 -- -- 42
2019-04-05 00:00:00 9.8 4 Sudeste 15 Sur 0 -- -- 56
2019-04-04 23:00:00 9.8 5 Sudoeste 13 Sudoeste 0 -- -- 48
2019-04-04 22:00:00 9.2 4 Sudoeste 8 Sur 0 -- -- 59
2019-04-04 21:00:00 10.2 3 Sur 12 Sudoeste 0 -- -- 54
2019-04-04 20:00:00 11.7 5 Sudoeste 29 Sudoeste 0 -- -- 42
2019-04-04 19:00:00 12.4 8 Sudoeste 27 Sur 0 -- -- 41
2019-04-04 18:00:00 12.5 13 Sur 31 Sur 0 -- -- 40
2019-04-04 17:00:00 12.9 12 Sur 25 Sur 0 -- -- 40
2019-04-04 16:00:00 12.2 13 Sur 33 Sur 0 -- -- 50
2019-04-04 15:00:00 10.6 5 Sur 28 Sur 0 -- -- 53
2019-04-04 14:00:00 10.1 11 Sur 27 Sur 0 -- -- 53
2019-04-04 13:00:00 10.3 13 Sur 23 Sur 0 -- -- 53
2019-04-04 12:00:00 8.5 11 Sur 27 Sur 0 -- -- 59
2019-04-04 11:00:00 8.2 12 Sudeste 20 Este 0 -- -- 57
2019-04-04 10:00:00 6.9 7 Sur 16 Sudoeste 0 -- -- 68
2019-04-04 09:00:00 4.2 4 Sur 26 Sudoeste 0 -- -- 74
2019-04-04 08:00:00 3.6 3 Sur 14 Sur 0 -- -- 79
2019-04-04 07:00:00 3.7 6 Sudeste 19 Sudeste 0 -- -- 80
2019-04-04 06:00:00 3.8 8 Sur 21 Sur 0 -- -- 80
2019-04-04 05:00:00 3.1 3 Sudoeste 13 Sudeste 0.2 -- -- 89
2019-04-04 04:00:00 3.6 4 Sur 19 Sur 0.2 -- -- 83
2019-04-04 03:00:00 3.4 6 Sur 26 Sur 0 -- -- 86
2019-04-04 02:00:00 3.3 6 Sur 14 Oeste 0.8 -- -- 86
2019-04-04 01:00:00 3.6 6 Sur 15 Sur 0.2 -- -- 85
2019-04-04 00:00:00 3.4 4 Sur 23 Sudoeste 0.4 -- -- 85
2019-04-03 23:00:00 3.9 7 Sudeste 19 Sur 0 -- -- 79
2019-04-03 22:00:00 4.2 6 Sur 22 Sur 0.6 -- -- 80
2019-04-03 21:00:00 5.5 8 Sur 18 Sudoeste 0 -- -- 71
2019-04-03 20:00:00 5.6 6 Sudoeste 20 Sudeste 0 -- -- 76
2019-04-03 19:00:00 6 5 Sur 25 Oeste 0.4 -- -- 82
2019-04-03 18:00:00 7.3 10 Sudeste 19 Sudoeste 0 -- -- 66
2019-04-03 17:00:00 5.9 6 Sudeste 23 Nordeste 0.8 -- -- 86
2019-04-03 16:00:00 6.5 8 Sur 37 Sudoeste 0.8 -- -- 82
2019-04-03 15:00:00 10.1 5 Este 23 Sudoeste 0 -- -- 67
2019-04-03 14:00:00 8.7 6 Sudeste 30 Sudoeste 1 -- -- 77
2019-04-03 13:00:00 9 5 Norte 17 Sudoeste 0.2 -- -- 73
2019-04-03 12:00:00 8.5 7 Sudeste 30 Sudoeste 0 -- -- 70
2019-04-03 11:00:00 7 8 Sudoeste 17 Sudoeste 0.6 -- -- 79
2019-04-03 10:00:00 6.5 5 Sur 16 Sudoeste 1 -- -- 88
2019-04-03 09:00:00 6.7 3 Sudoeste 13 Sudoeste 1 -- -- 89
2019-04-03 08:00:00 7.3 6 Sur 19 Sudoeste 0 -- -- 82
2019-04-03 07:00:00 7.1 5 Sur 16 Sur 0.2 -- -- 87
2019-04-03 06:00:00 7.1 7 Sur 15 Sudoeste 0.4 -- -- 86
2019-04-03 05:00:00 6.9 4 Sur 13 Sur 0.4 -- -- 88
2019-04-03 04:00:00 7.5 3 Sudoeste 10 Sur 1 -- -- 93
2019-04-03 03:00:00 7.9 4 Sur 10 Sur 0.4 -- -- 93
2019-04-03 02:00:00 8.3 4 Sudeste 9 Este 1 -- -- 92
2019-04-03 01:00:00 9 0 Calma 7 Sudeste 0.6 -- -- 93
2019-04-03 00:00:00 9.5 0 Calma 7 Sur 0.4 -- -- 89
2019-04-02 23:00:00 10.2 2 Sur 9 Noroeste 0 -- -- 82
2019-04-02 22:00:00 10.6 8 Norte 11 Norte 0 -- -- 75
2019-04-02 21:00:00 10.9 0 Calma 8 Nordeste 0 -- -- 71
2019-04-02 20:00:00 11.8 4 Norte 14 Noroeste 0 -- -- 68
2019-04-02 19:00:00 12.9 6 Norte 14 Norte 0 -- -- 65
2019-04-02 18:00:00 13.9 4 Este 23 Noroeste 0 -- -- 67
2019-04-02 17:00:00 13.4 14 Norte 24 Norte 0 -- -- 68
2019-04-02 16:00:00 14.6 15 Norte 30 Norte 0 -- -- 63
2019-04-02 15:00:00 16.7 6 Sur 20 Sudoeste 0 -- -- 52
2019-04-02 14:00:00 16 6 Sudoeste 21 Sudoeste 0 -- -- 57
2019-04-02 13:00:00 14.6 6 Nordeste 17 Nordeste 0 -- -- 66
2019-04-02 12:00:00 13.3 4 Este 10 Norte 0 -- -- 73
2019-04-02 11:00:00 12.5 4 Sur 8 Sudeste 0 -- -- 84
2019-04-02 10:00:00 10.6 0 Calma 5 Sudoeste 0 -- -- 98
2019-04-02 09:00:00 9.9 0 Calma 5 Norte 0 -- -- 98
2019-04-02 08:00:00 9.9 0 Calma 5 Norte 0 -- -- 98
2019-04-02 07:00:00 9.8 0 Calma 3 Sur 0 -- -- 97
2019-04-02 06:00:00 9.8 0 Calma 4 Sudeste 0 -- -- 97
2019-04-02 05:00:00 9.6 0 Calma 4 Sur 0 -- -- 97
2019-04-02 04:00:00 9.4 0 Calma 5 Norte 0 -- -- 97
2019-04-02 03:00:00 9.4 2 Oeste 5 Sudoeste 0 -- -- 95
2019-04-02 02:00:00 9.8 0 Calma 5 Sur 0 -- -- 95
2019-04-02 01:00:00 10.5 3 Sur 5 Sur 0 -- -- 95
2019-04-02 00:00:00 11 0 Calma 5 Sudeste 0 -- -- 95
2019-04-01 23:00:00 11.4 2 Sur 10 Sur 0.4 -- -- 93
2019-04-01 22:00:00 12.1 9 Sur 31 Sur 0.4 -- -- 86
2019-04-01 21:00:00 13.1 0 Calma 6 Nordeste 0 -- -- 80
2019-04-01 20:00:00 13.7 5 Norte 12 Norte 0 -- -- 78
2019-04-01 19:00:00 14.1 4 Norte 9 Noroeste 0 -- -- 76
2019-04-01 18:00:00 14 6 Norte 13 Norte 0 -- -- 76
2019-04-01 17:00:00 14 9 Norte 16 Norte 0 -- -- 75
2019-04-01 16:00:00 14.5 3 Nordeste 6 Nordeste 0 -- -- 78
2019-04-01 15:00:00 13.7 2 Nordeste 4 Este 0 -- -- 80
2019-04-01 14:00:00 13.2 0 Calma 5 Norte 0 -- -- 83
2019-04-01 13:00:00 12.2 2 Nordeste 4 Norte 0 -- -- 86
2019-04-01 12:00:00 11.5 0 Calma 3 Norte 0 -- -- 92
2019-04-01 11:00:00 10.2 2 Norte 5 Norte 0.4 -- -- 94
2019-04-01 10:00:00 9.9 2 Este 9 Sur 0.2 -- -- 94
2019-04-01 09:00:00 9.8 6 Sur 11 Sur 0.2 -- -- 89
2019-04-01 08:00:00 10 3 Sudoeste 14 Sur 0.2 -- -- 86
2019-04-01 07:00:00 10.4 7 Sur 14 Sudoeste 0 -- -- 79
2019-04-01 06:00:00 9.7 3 Sur 13 Sur 0.2 -- -- 88
2019-04-01 05:00:00 9.5 0 Calma 15 Sur 0 -- -- 85
2019-04-01 04:00:00 9.8 3 Sur 15 Sudoeste 0.4 -- -- 84
2019-04-01 03:00:00 10.4 2 Noroeste 13 Sudoeste 0.2 -- -- 78
2019-04-01 02:00:00 10.6 7 Sudoeste 16 Sur 0 -- -- 77
2019-04-01 01:00:00 11.1 7 Sur 24 Sur 0.2 -- -- 73
2019-04-01 00:00:00 13.2 14 Sur 26 Sudeste 0 -- -- 58
2019-03-31 23:00:00 13.4 9 Sur 17 Sur 0 -- -- 56
2019-03-31 22:00:00 12.8 3 Sur 8 Sudoeste 0 -- -- 63
2019-03-31 21:00:00 14.5 3 Sur 7 Noroeste 0 -- -- 58
2019-03-31 20:00:00 15.9 6 Noroeste 12 Noroeste 0 -- -- 50
2019-03-31 19:00:00 16.7 8 Norte 13 Norte 0 -- -- 47
2019-03-31 18:00:00 16.9 10 Norte 22 Norte 0 -- -- 46
2019-03-31 17:00:00 17.4 10 Norte 19 Norte 0 -- -- 46
2019-03-31 16:00:00 17.5 10 Norte 22 Norte 0 -- -- 43
2019-03-31 15:00:00 19 12 Norte 20 Norte 0 -- -- 34
2019-03-31 14:00:00 18.8 11 Norte 18 Norte 0 -- -- 36
2019-03-31 13:00:00 17.9 13 Norte 17 Norte 0 -- -- 34
2019-03-31 12:00:00 18.6 4 Norte 8 Nordeste 0 -- -- 40
2019-03-31 11:00:00 16.3 3 Nordeste 5 Este 0 -- -- 48
2019-03-31 10:00:00 11.9 5 Sur 9 Sur 0 -- -- 61
2019-03-31 09:00:00 7.7 0 Calma 4 Sur 0 -- -- 71
2019-03-31 08:00:00 8.7 0 Calma 7 Sur 0 -- -- 65
2019-03-31 07:00:00 11 3 Sudoeste 19 Sur 0 -- -- 54
2019-03-31 06:00:00 12 6 Sur 18 Sur 0 -- -- 49
2019-03-31 05:00:00 10.9 4 Sudoeste 10 Sur 0 -- -- 54
2019-03-31 03:00:00 12.7 5 Sudoeste 9 Sudoeste 0 -- -- 51
2019-03-31 01:00:00 13.4 8 Sudoeste 17 Sudoeste 0 -- -- 45
2019-03-31 00:00:00 12.7 8 Sudoeste 13 Sudoeste 0 -- -- 48
2019-03-30 23:00:00 10.5 5 Sur 7 Sur 0 -- -- 59
2019-03-30 22:00:00 11.4 3 Sur 8 Sur 0 -- -- 57
2019-03-30 21:00:00 12.8 2 Sur 7 Sur 0 -- -- 57
2019-03-30 20:00:00 14.7 3 Sur 6 Oeste 0 -- -- 50
2019-03-30 19:00:00 17.6 4 Noroeste 9 Noroeste 0 -- -- 39
2019-03-30 18:00:00 18.6 6 Norte 14 Norte 0 -- -- 34
2019-03-30 17:00:00 19.6 4 Sudeste 26 Sudoeste 0 -- -- 33
2019-03-30 16:00:00 21.3 9 Sudoeste 31 Sudeste 0 -- -- 29
2019-03-30 15:00:00 20.5 14 Sur 31 Sudoeste 0 -- -- 32
2019-03-30 14:00:00 21 8 Sur 35 Sudoeste 0 -- -- 30
2019-03-30 13:00:00 20 12 Sur 36 Sudeste 0 -- -- 34
2019-03-30 12:00:00 19 15 Sur 39 Sur 0 -- -- 36
2019-03-30 11:00:00 18.7 10 Sur 29 Sur 0 -- -- 36
2019-03-30 10:00:00 17.2 10 Sur 26 Sur 0 -- -- 37
2019-03-30 09:00:00 15.6 9 Sur 23 Sudeste 0 -- -- 40
2019-03-30 08:00:00 12.5 7 Sudoeste 27 Sur 0 -- -- 46
2019-03-30 07:00:00 12.1 7 Sudoeste 31 Sudoeste 0 -- -- 47
2019-03-30 06:00:00 12.6 12 Sudoeste 36 Sur 0 -- -- 47
2019-03-30 05:00:00 12.8 18 Sudoeste 41 Sudoeste 0 -- -- 47
2019-03-30 04:00:00 12.9 19 Sudoeste 41 Sudoeste 0 -- -- 47
2019-03-30 03:00:00 13.1 21 Sudoeste 44 Sudoeste 0 -- -- 46
2019-03-30 02:00:00 13.5 20 Sudoeste 42 Sudoeste 0 -- -- 45
2019-03-30 01:00:00 14 23 Sudoeste 42 Sudoeste 0 -- -- 44
2019-03-30 00:00:00 14.5 17 Sudoeste 46 Sudoeste 0 -- -- 42
2019-03-29 23:00:00 15.2 18 Sudoeste 39 Sur 0 -- -- 39
2019-03-29 22:00:00 15.4 10 Sudoeste 26 Sur 0 -- -- 36
2019-03-29 21:00:00 15 8 Sudoeste 23 Sudoeste 0 -- -- 38
2019-03-29 20:00:00 14.3 4 Sur 9 Sur 0 -- -- 42
2019-03-29 19:00:00 17.4 8 Sudoeste 24 Sudoeste 0 -- -- 34
2019-03-29 18:00:00 18.4 10 Sudoeste 34 Sudoeste 0 -- -- 30
2019-03-29 17:00:00 19.7 14 Sudoeste 35 Sudoeste 0 -- -- 27
2019-03-29 16:00:00 20.4 16 Sur 46 Sur 0 -- -- 25
2019-03-29 15:00:00 20.8 15 Sudoeste 36 Sur 0 -- -- 26
2019-03-29 14:00:00 20.9 14 Sur 38 Sudoeste 0 -- -- 27
2019-03-29 13:00:00 20.1 16 Sur 41 Sudoeste 0 -- -- 32
2019-03-29 12:00:00 19.5 12 Sur 42 Sur 0 -- -- 34
2019-03-29 11:00:00 15 14 Norte 23 Norte 0 -- -- 52
2019-03-29 10:00:00 11.3 10 Norte 19 Norte 0 -- -- 64
2019-03-29 09:00:00 8.3 3 Noroeste 9 Sudoeste 0 -- -- 86
2019-03-29 08:00:00 3.7 2 Sur 9 Sur 0 -- -- 93
2019-03-29 07:00:00 3.5 4 Oeste 10 Sur 0 -- -- 92
2019-03-29 06:00:00 3.8 3 Sudoeste 7 Sudoeste 0 -- -- 92
2019-03-29 05:00:00 4.1 0 Calma 4 Sudoeste 0 -- -- 89
2019-03-29 04:00:00 4.7 0 Calma 6 Sur 0 -- -- 86
2019-03-29 03:00:00 5.1 3 Sur 6 Sur 0 -- -- 85
2019-03-29 02:00:00 5.3 2 Sur 5 Sudoeste 0 -- -- 85
2019-03-29 01:00:00 5.3 0 Calma 8 Sur 0 -- -- 86
2019-03-29 00:00:00 5.5 3 Sur 8 Sur 0 -- -- 86
2019-03-28 23:00:00 5.8 0 Calma 6 Sudoeste 0 -- -- 84
2019-03-28 22:00:00 6.5 0 Calma 6 Sur 0 -- -- 82
2019-03-28 21:00:00 7.8 0 Calma 4 Sudoeste 0 -- -- 76
2019-03-28 20:00:00 9.9 0 Calma 10 Norte 0 -- -- 68
2019-03-28 19:00:00 11.9 8 Norte 21 Noroeste 0 -- -- 60
2019-03-28 18:00:00 13.1 9 Norte 24 Noroeste 0 -- -- 55
2019-03-28 17:00:00 14.1 11 Norte 27 Norte 0 -- -- 53
2019-03-28 16:00:00 14.6 13 Norte 26 Nordeste 0 -- -- 53
2019-03-28 15:00:00 14.8 13 Norte 24 Norte 0 -- -- 51
2019-03-28 14:00:00 15 14 Norte 27 Nordeste 0 -- -- 52
2019-03-28 13:00:00 14.5 11 Norte 22 Norte 0 -- -- 51
2019-03-28 12:00:00 13.6 12 Norte 21 Norte 0 -- -- 58
2019-03-28 11:00:00 12.8 12 Norte 20 Norte 0 -- -- 59
2019-03-28 10:00:00 10.7 7 Norte 9 Norte 0 -- -- 70
2019-03-28 09:00:00 7 4 Sur 8 Sur 0 -- -- 90
2019-03-28 08:00:00 3 0 Calma 4 Sudoeste 0 -- -- 94
2019-03-28 07:00:00 2.8 2 Sur 4 Sudoeste 0 -- -- 93
2019-03-28 06:00:00 3.2 0 Calma 5 Sur 0 -- -- 93
2019-03-28 05:00:00 3.2 0 Calma 5 Sur 0 -- -- 92
2019-03-28 04:00:00 3.2 3 Sur 5 Sur 0 -- -- 91
2019-03-28 03:00:00 3.4 3 Sur 6 Sur 0 -- -- 88
2019-03-28 02:00:00 3.4 0 Calma 4 Sur 0 -- -- 85
2019-03-28 01:00:00 3.7 0 Calma 7 Sur 0 -- -- 84
2019-03-28 00:00:00 4.3 3 Sur 8 Sur 0 -- -- 82
2019-03-27 23:00:00 4.7 0 Calma 4 Sur 0 -- -- 80
2019-03-27 22:00:00 5.8 2 Sur 5 Sur 0 -- -- 78
2019-03-27 21:00:00 7.1 0 Calma 6 Oeste 0 -- -- 74
2019-03-27 20:00:00 9 0 Calma 14 Noroeste 0 -- -- 66
2019-03-27 19:00:00 10.4 12 Norte 28 Noroeste 0 -- -- 60
2019-03-27 18:00:00 11.7 17 Norte 34 Norte 0 -- -- 51
2019-03-27 17:00:00 12.7 14 Norte 32 Norte 0 -- -- 47
2019-03-27 16:00:00 13.9 13 Norte 29 Norte 0 -- -- 38
2019-03-27 15:00:00 14 12 Norte 31 Nordeste 0 -- -- 36
2019-03-27 14:00:00 13.8 14 Norte 21 Norte 0 -- -- 35
2019-03-27 13:00:00 13.1 13 Norte 23 Norte 0 -- -- 41
2019-03-27 12:00:00 12.3 13 Norte 22 Norte 0 -- -- 42
2019-03-27 11:00:00 10.9 12 Norte 19 Norte 0 -- -- 50
2019-03-27 10:00:00 8.3 10 Norte 18 Norte 0 -- -- 57
2019-03-27 09:00:00 5.6 3 Sudeste 4 Sur 0 -- -- 78
2019-03-27 08:00:00 1.4 0 Calma 5 Sur 0 -- -- 82
2019-03-27 07:00:00 1.4 0 Calma 6 Sur 0 -- -- 82
2019-03-27 06:00:00 1.3 2 Sur 5 Sudoeste 0 -- -- 84
2019-03-27 05:00:00 1.4 0 Calma 5 Sur 0 -- -- 83
2019-03-27 04:00:00 1.9 2 Sur 5 Sur 0 -- -- 80
2019-03-27 03:00:00 2.9 0 Calma 11 Sur 0 -- -- 75
2019-03-27 02:00:00 3.6 3 Sur 8 Sur 0 -- -- 73
2019-03-27 01:00:00 4.2 0 Calma 6 Sur 0 -- -- 70
2019-03-27 00:00:00 4.9 0 Calma 9 Sur 0 -- -- 66
2019-03-26 23:00:00 6 6 Sur 11 Sur 0 -- -- 62
2019-03-26 22:00:00 7.8 3 Sudoeste 14 Noroeste 0 -- -- 55
2019-03-26 21:00:00 9.5 8 Noroeste 23 Noroeste 0 -- -- 49
2019-03-26 20:00:00 11 10 Norte 24 Norte 0 -- -- 40
2019-03-26 19:00:00 12.1 13 Noroeste 35 Norte 0 -- -- 36
2019-03-26 18:00:00 12.7 19 Norte 44 Noroeste 0 -- -- 32
2019-03-26 17:00:00 13.1 19 Norte 42 Norte 0 -- -- 34
2019-03-26 16:00:00 13.1 19 Norte 37 Norte 0 -- -- 38
2019-03-26 15:00:00 12.5 16 Norte 40 Norte 0 -- -- 47
2019-03-26 14:00:00 11.7 15 Norte 32 Norte 0 -- -- 48
2019-03-26 13:00:00 11 13 Norte 23 Norte 0 -- -- 51
2019-03-26 12:00:00 10.2 10 Norte 21 Norte 0 -- -- 54
2019-03-26 11:00:00 8.8 12 Norte 19 Norte 0 -- -- 59
2019-03-26 10:00:00 7.7 7 Norte 13 Norte 0 -- -- 65
2019-03-26 09:00:00 5.2 4 Sudeste 9 Sur 0 -- -- 79
2019-03-26 08:00:00 1.6 3 Sur 4 Sur 0 -- -- 91
2019-03-26 07:00:00 2.2 2 Sur 5 Sudeste 0 -- -- 87
2019-03-26 06:00:00 3.7 2 Sur 9 Norte 0 -- -- 81
2019-03-26 05:00:00 4.4 3 Noroeste 9 Noroeste 0 -- -- 81
2019-03-26 04:00:00 4.5 0 Calma 5 Noroeste 0 -- -- 84
2019-03-26 03:00:00 5.5 2 Oeste 9 Noroeste 0 -- -- 80
2019-03-26 02:00:00 6.6 4 Noroeste 15 Norte 0 -- -- 77
2019-03-26 01:00:00 7.6 6 Norte 17 Noroeste 0 -- -- 76
2019-03-26 00:00:00 8.1 10 Norte 23 Noroeste 0 -- -- 78
2019-03-25 23:00:00 8.3 14 Norte 26 Noroeste 0 -- -- 80
2019-03-25 22:00:00 8.6 13 Norte 23 Noroeste 0 -- -- 76
2019-03-25 21:00:00 8.7 10 Norte 20 Norte 0 -- -- 67
2019-03-25 20:00:00 8.9 12 Norte 22 Norte 0 -- -- 64
2019-03-25 19:00:00 9.7 14 Norte 30 Norte 0 -- -- 69
2019-03-25 18:00:00 10.8 15 Norte 32 Norte 0 -- -- 65
2019-03-25 17:00:00 11.7 12 Noroeste 30 Noroeste 0 -- -- 62
2019-03-25 16:00:00 12.3 14 Norte 36 Norte 0 -- -- 60
2019-03-25 15:00:00 12.1 17 Norte 32 Nordeste 0 -- -- 53
2019-03-25 14:00:00 11.7 13 Norte 33 Noroeste 0 -- -- 58
2019-03-25 13:00:00 10.8 17 Norte 31 Norte 0 -- -- 60
2019-03-25 12:00:00 10.4 17 Norte 29 Norte 0 -- -- 62
2019-03-25 11:00:00 9.8 13 Norte 24 Norte 0 -- -- 69
2019-03-25 10:00:00 8.5 10 Norte 18 Norte 0 -- -- 76
2019-03-25 09:00:00 7.5 9 Norte 19 Norte 0 -- -- 86
2019-03-25 08:00:00 7.3 10 Norte 16 Norte 0 -- -- 91
2019-03-25 07:00:00 6.7 0 Calma 3 Sur 0 -- -- 87
2019-03-25 06:00:00 6.4 0 Calma 4 Sur 0 -- -- 87
2019-03-25 05:00:00 5.4 3 Sur 6 Sur 0 -- -- 89
2019-03-25 04:00:00 5 0 Calma 4 Sur 0 -- -- 87
2019-03-25 03:00:00 5.4 0 Calma 4 Sur 0 -- -- 85
2019-03-25 02:00:00 6.2 0 Calma 8 Sudoeste 0 -- -- 82
2019-03-25 01:00:00 6.6 2 Sur 5 Sur 0 -- -- 82
2019-03-25 00:00:00 7.2 0 Calma 6 Sur 0 -- -- 80
2019-03-24 23:00:00 7.9 2 Sur 6 Sur 0 -- -- 79
2019-03-24 22:00:00 9.1 0 Calma 4 Sur 0 -- -- 76
2019-03-24 21:00:00 11.1 0 Calma 5 Noroeste 0 -- -- 69
2019-03-24 20:00:00 13.6 7 Norte 19 Norte 0 -- -- 63
2019-03-24 19:00:00 15.8 11 Norte 28 Noroeste 0 -- -- 64
2019-03-24 18:00:00 17.8 14 Norte 27 Noroeste 0 -- -- 42
2019-03-24 17:00:00 18.4 12 Norte 27 Norte 0 -- -- 41
2019-03-24 16:00:00 18.8 15 Norte 30 Norte 0 -- -- 40
2019-03-24 15:00:00 18.9 15 Norte 29 Norte 0 -- -- 37
2019-03-24 14:00:00 19.1 14 Norte 25 Norte 0 -- -- 36
2019-03-24 13:00:00 18.9 15 Norte 32 Norte 0 -- -- 40
2019-03-24 12:00:00 18.5 13 Norte 20 Norte 0 -- -- 44
2019-03-24 11:00:00 17.3 11 Norte 17 Norte 0 -- -- 47
2019-03-24 10:00:00 14.6 8 Norte 12 Norte 0 -- -- 56
2019-03-24 09:00:00 10.7 6 Sur 9 Sur 0 -- -- 69
2019-03-24 08:00:00 7.2 4 Sur 7 Sur 0 -- -- 78
2019-03-24 07:00:00 7 2 Sur 4 Sudoeste 0 -- -- 78
2019-03-24 06:00:00 7.9 2 Sur 7 Sur 0 -- -- 77
2019-03-24 05:00:00 8.3 2 Sur 6 Sur 0 -- -- 76
2019-03-24 04:00:00 8.4 3 Sur 5 Sur 0 -- -- 75
2019-03-24 03:00:00 8.4 4 Sur 6 Sur 0 -- -- 75
2019-03-24 02:00:00 8.5 3 Sur 6 Sur 0 -- -- 76
2019-03-24 01:00:00 8.9 0 Calma 8 Sudoeste 0 -- -- 74
2019-03-24 00:00:00 9.7 3 Sur 10 Sur 0 -- -- 71
2019-03-23 23:00:00 10.5 4 Sur 11 Sudoeste 0 -- -- 68
2019-03-23 22:00:00 11.3 3 Sur 9 Sur 0 -- -- 65
2019-03-23 21:00:00 12.5 4 Sur 11 Sudeste 0 -- -- 60
2019-03-23 20:00:00 14.7 3 Sur 12 Sur 0 -- -- 55
2019-03-23 19:00:00 18.5 4 Noroeste 21 Noroeste 0 -- -- 40
2019-03-23 18:00:00 19.4 11 Norte 22 Norte 0 -- -- 39
2019-03-23 17:00:00 19.9 13 Norte 22 Noroeste 0 -- -- 39
2019-03-23 16:00:00 20.2 10 Norte 23 Noroeste 0 -- -- 40
2019-03-23 15:00:00 20.1 13 Norte 23 Norte 0 -- -- 40
2019-03-23 14:00:00 19.9 13 Norte 24 Norte 0 -- -- 40
2019-03-23 13:00:00 19.1 14 Norte 25 Norte 0 -- -- 40
2019-03-23 12:00:00 18.3 15 Norte 22 Norte 0 -- -- 34
2019-03-23 11:00:00 16.7 10 Norte 15 Norte 0 -- -- 42
2019-03-23 10:00:00 13.2 3 Norte 8 Sur 0 -- -- 55
2019-03-23 09:00:00 9.4 3 Sur 5 Sur 0 -- -- 71
2019-03-23 08:00:00 6.3 0 Calma 4 Sur 0 -- -- 76
2019-03-23 07:00:00 6.3 0 Calma 4 Sudoeste 0 -- -- 75
2019-03-23 06:00:00 6.9 2 Sur 5 Sur 0 -- -- 73
2019-03-23 05:00:00 7.4 3 Sur 4 Sur 0 -- -- 70
2019-03-23 04:00:00 7.7 3 Sur 5 Sur 0 -- -- 69
2019-03-23 03:00:00 7.6 2 Sur 7 Sudoeste 0 -- -- 69
2019-03-23 02:00:00 7.4 2 Sur 5 Sur 0 -- -- 71
2019-03-23 01:00:00 7.9 3 Sur 5 Sur 0 -- -- 70
2019-03-23 00:00:00 8.1 0 Calma 8 Sudoeste 0 -- -- 69
2019-03-22 23:00:00 8.7 4 Sur 9 Sur 0 -- -- 67
2019-03-22 22:00:00 9.5 4 Sur 10 Sur 0 -- -- 64
2019-03-22 21:00:00 10.8 4 Sur 8 Sur 0 -- -- 59
2019-03-22 20:00:00 12.2 4 Sur 8 Sur 0 -- -- 57
2019-03-22 19:00:00 15.8 0 Calma 19 Norte 0 -- -- 45
2019-03-22 18:00:00 17.7 11 Norte 19 Noroeste 0 -- -- 38
2019-03-22 17:00:00 18.5 12 Norte 19 Norte 0 -- -- 37
2019-03-22 16:00:00 18.8 10 Norte 22 Norte 0 -- -- 38
2019-03-22 15:00:00 18.9 15 Norte 23 Norte 0 -- -- 37
2019-03-22 14:00:00 18.7 16 Norte 26 Norte 0 -- -- 36
2019-03-22 13:00:00 18.1 18 Norte 23 Norte 0 -- -- 37
2019-03-22 12:00:00 18.4 8 Norte 15 Sur 0 -- -- 36
2019-03-22 11:00:00 15.9 6 Nordeste 15 Norte 0 -- -- 44
2019-03-22 10:00:00 13.1 2 Sudeste 7 Sur 0 -- -- 60
2019-03-22 09:00:00 7.1 4 Sur 8 Sur 0 -- -- 80
2019-03-22 08:00:00 3.9 0 Calma 6 Sur 0 -- -- 84
2019-03-22 07:00:00 3.6 3 Sur 5 Sur 0 -- -- 85
2019-03-22 06:00:00 2.9 3 Sur 5 Sur 0 -- -- 88
2019-03-22 05:00:00 2.8 2 Sur 4 Sur 0 -- -- 90
2019-03-22 04:00:00 3 0 Calma 6 Sur 0 -- -- 88
2019-03-22 03:00:00 3.7 2 Sur 5 Sur 0 -- -- 86
2019-03-22 02:00:00 3.8 3 Sur 5 Sur 0 -- -- 86
2019-03-22 01:00:00 4.4 0 Calma 7 Sur 0 -- -- 85
2019-03-22 00:00:00 4.8 3 Sur 7 Sudoeste 0 -- -- 84
2019-03-21 23:00:00 5.4 3 Sur 6 Sur 0 -- -- 82
2019-03-21 22:00:00 6 3 Sur 8 Sur 0 -- -- 80
2019-03-21 21:00:00 6.8 3 Sur 9 Sudoeste 0 -- -- 77
2019-03-21 20:00:00 8.6 2 Sudoeste 4 Sur 0 -- -- 70
2019-03-21 19:00:00 11 2 Sudoeste 18 Noroeste 0 -- -- 62
2019-03-21 18:00:00 12.2 9 Noroeste 19 Norte 0 -- -- 55
2019-03-21 17:00:00 13.1 10 Norte 23 Norte 0 -- -- 49
2019-03-21 16:00:00 13.6 10 Norte 22 Norte 0 -- -- 49
2019-03-21 15:00:00 13.8 10 Norte 23 Norte 0 -- -- 48
2019-03-21 14:00:00 13.7 9 Norte 20 Norte 0 -- -- 49
2019-03-21 13:00:00 13 12 Norte 21 Norte 0 -- -- 49
2019-03-21 12:00:00 12.6 9 Nordeste 17 Norte 0 -- -- 47
2019-03-21 11:00:00 10.7 10 Norte 16 Norte 0 -- -- 57
2019-03-21 10:00:00 9.2 3 Nordeste 6 Sur 0 -- -- 67
2019-03-21 09:00:00 4.4 0 Calma 6 Sudoeste 0 -- -- 93
2019-03-21 08:00:00 1.8 3 Sur 7 Sur 0 -- -- 89
2019-03-21 07:00:00 1.4 3 Sur 5 Sudeste 0 -- -- 92
2019-03-21 06:00:00 1.7 0 Calma 8 Sur 0 -- -- 90
2019-03-21 05:00:00 2.1 3 Sur 8 Sur 0 -- -- 92
2019-03-21 04:00:00 2.3 3 Sur 7 Oeste 0 -- -- 93
2019-03-21 03:00:00 2.3 0 Calma 5 Sur 0 -- -- 94
2019-03-21 02:00:00 2.4 0 Calma 4 Sudeste 0 -- -- 94
2019-03-21 01:00:00 3 2 Sur 5 Sudoeste 0 -- -- 93
2019-03-21 00:00:00 3 3 Sur 5 Sur 0 -- -- 91
2019-03-20 23:00:00 3.8 2 Sur 6 Sur 0 -- -- 88
2019-03-20 22:00:00 4.4 0 Calma 6 Sudoeste 0 -- -- 85
2019-03-20 21:00:00 5.6 2 Sur 5 Sur 0 -- -- 81
2019-03-20 20:00:00 7.5 4 Sur 18 Noroeste 0 -- -- 73
2019-03-20 19:00:00 9.2 9 Norte 29 Noroeste 0 -- -- 63
2019-03-20 18:00:00 10.2 12 Noroeste 28 Norte 0 -- -- 61
2019-03-20 17:00:00 10.7 15 Norte 33 Norte 0 -- -- 50
2019-03-20 16:00:00 10.9 19 Norte 34 Norte 0 -- -- 52
2019-03-20 15:00:00 10.7 16 Norte 34 Norte 0 -- -- 46
2019-03-20 14:00:00 10.5 15 Norte 28 Norte 0 -- -- 51
2019-03-20 13:00:00 10.4 14 Norte 35 Noroeste 0 -- -- 49
2019-03-20 12:00:00 9.4 19 Norte 34 Norte 0 -- -- 51
2019-03-20 11:00:00 8.7 10 Norte 19 Norte 0 -- -- 79
2019-03-20 10:00:00 6.1 4 Norte 8 Noroeste 0 -- -- 99
2019-03-20 09:00:00 3.3 0 Calma 4 Sudoeste 0 -- -- 98
2019-03-20 08:00:00 3.1 0 Calma 3 Sudoeste 0 -- -- 97
2019-03-20 07:00:00 3.9 0 Calma 3 Sudoeste 0 -- -- 96
2019-03-20 06:00:00 4.7 0 Calma 2 Norte 0 -- -- 95
2019-03-20 05:00:00 5.1 0 Calma 2 Sur 0 -- -- 93
2019-03-20 04:00:00 5.7 0 Calma 15 Noroeste 0 -- -- 91
2019-03-20 03:00:00 6 7 Norte 14 Noroeste 0 -- -- 92
2019-03-20 02:00:00 6.2 9 Norte 23 Norte 0 -- -- 92
2019-03-20 01:00:00 6.4 14 Norte 24 Norte 0 -- -- 91
2019-03-20 00:00:00 6.6 10 Norte 24 Norte 0 -- -- 89
2019-03-19 23:00:00 6.7 13 Norte 21 Norte 0 -- -- 88
2019-03-19 22:00:00 6.6 12 Norte 22 Norte 0 -- -- 88
2019-03-19 21:00:00 6.4 8 Noroeste 16 Noroeste 0.4 -- -- 88
2019-03-19 20:00:00 7.3 9 Norte 22 Norte 0 -- -- 82
2019-03-19 19:00:00 7.9 11 Norte 23 Norte 0 -- -- 74
2019-03-19 18:00:00 8.1 12 Norte 25 Norte 0 -- -- 69
2019-03-19 17:00:00 8.2 13 Norte 26 Norte 0 -- -- 69
2019-03-19 16:00:00 8.1 13 Norte 25 Nordeste 0 -- -- 75
2019-03-19 15:00:00 8 12 Norte 24 Norte 0 -- -- 75
2019-03-19 14:00:00 7.7 12 Norte 27 Norte 0 -- -- 79
2019-03-19 13:00:00 7.5 15 Norte 27 Norte 0 -- -- 80
2019-03-19 12:00:00 7.3 16 Norte 31 Norte 0 -- -- 82
2019-03-19 11:00:00 7 14 Norte 23 Norte 0 -- -- 88
2019-03-19 10:00:00 6.3 9 Norte 20 Noroeste 0 -- -- 96
2019-03-19 09:00:00 5.7 7 Norte 14 Noroeste 0 -- -- 99
2019-03-19 08:00:00 5 7 Norte 13 Noroeste 1.2 -- -- 98
2019-03-19 07:00:00 5.1 7 Norte 14 Norte 1.4 -- -- 98
2019-03-19 06:00:00 5 2 Norte 6 Norte 1.6 -- -- 98
2019-03-19 05:00:00 5.1 0 Calma 6 Noroeste 1.4 -- -- 97
2019-03-19 04:00:00 5.1 3 Noroeste 8 Noroeste 1.8 -- -- 97
2019-03-19 03:00:00 5.2 0 Calma 5 Oeste 1.2 -- -- 96
2019-03-19 02:00:00 5.3 4 Norte 16 Norte 1.2 -- -- 95
2019-03-19 01:00:00 5.4 8 Norte 16 Noroeste 2.2 -- -- 96
2019-03-19 00:00:00 5.7 0 Calma 3 Sur 0.4 -- -- 96